Time;durP1;ratioP1;P1;durP2;ratioP2;P2;SDS_P1;SDS_P2;PMS_P1;PMS_P2;Temp;Humidity;BMP_temperature;BMP_pressure;BME280_temperature;BME280_humidity;BME280_pressure;Samples;Min_cycle;Max_cycle;Signal;HPM_P1;HPM_P2
2022/04/12 00:01:07;;;;;;;2.28;2.15;;;;;;;7.42;81.00;95521.28;6367024;22;20328;-58
2022/04/12 00:03:34;;;;;;;2.05;1.95;;;;;;;7.40;81.96;95519.75;6367094;22;20091;-58
2022/04/12 00:05:59;;;;;;;3.65;2.13;;;;;;;7.40;81.01;95517.13;6367391;22;20054;-58
2022/04/12 00:08:25;;;;;;;3.10;2.80;;;;;;;7.38;82.92;95511.19;6367827;22;20391;-58
2022/04/12 00:10:50;;;;;;;3.03;2.83;;;;;;;7.51;81.40;95516.25;6367389;22;20457;-58
2022/04/12 00:13:19;;;;;;;3.28;2.72;;;;;;;7.56;81.65;95514.06;6367683;22;20334;-58
2022/04/12 00:15:45;;;;;;;4.10;2.70;;;;;;;7.55;80.72;95515.03;6366981;22;20059;-58
2022/04/12 00:20:55;;;;;;;4.30;3.72;;;;;;;7.51;80.99;95503.97;6367115;22;20021;-58
2022/04/12 00:23:22;;;;;;;4.20;3.80;;;;;;;7.60;79.92;95497.13;6367233;22;20014;-58
2022/04/12 00:25:47;;;;;;;3.80;3.25;;;;;;;7.59;79.81;95505.94;6366887;22;20350;-58
2022/04/12 00:28:14;;;;;;;4.85;3.33;;;;;;;7.57;79.88;95490.38;6366936;22;20002;-58
2022/04/12 00:30:39;;;;;;;4.80;3.30;;;;;;;7.50;79.82;95506.72;6366956;22;20085;-58
2022/04/12 00:33:05;;;;;;;3.85;3.55;;;;;;;7.35;80.82;95493.94;6367972;22;20037;-58
2022/04/12 00:35:30;;;;;;;4.25;3.58;;;;;;;7.36;81.07;95479.06;6366660;22;20106;-58
2022/04/12 00:37:56;;;;;;;5.50;3.72;;;;;;;7.30;80.62;95485.63;6366389;22;20009;-58
2022/04/12 00:40:24;;;;;;;4.18;2.95;;;;;;;7.39;80.03;95494.50;6366503;22;20033;-58
2022/04/12 00:42:50;;;;;;;4.18;2.58;;;;;;;7.37;80.84;95486.78;6367582;22;20029;-58
2022/04/12 00:45:16;;;;;;;3.95;2.70;;;;;;;7.33;80.70;95482.75;6366857;22;20500;-58
2022/04/12 00:47:43;;;;;;;2.60;2.40;;;;;;;7.27;81.91;95483.28;6338996;22;20385;-59
2022/04/12 00:50:10;;;;;;;3.47;3.17;;;;;;;7.23;81.35;95493.16;6366793;22;20408;-59
2022/04/12 00:52:39;;;;;;;3.38;2.80;;;;;;;7.25;80.70;95488.63;6366983;22;20075;-58
2022/04/12 00:55:06;;;;;;;5.40;2.88;;;;;;;7.25;81.22;95488.63;6366912;22;20462;-58
2022/04/12 00:57:32;;;;;;;6.25;4.93;;;;;;;7.23;81.35;95489.72;6366846;22;20006;-58
2022/04/12 00:59:59;;;;;;;5.25;4.10;;;;;;;7.22;80.38;95481.03;6367106;22;20017;-59
2022/04/12 01:02:25;;;;;;;3.30;2.88;;;;;;;7.17;81.11;95481.38;6366319;22;20010;-58
2022/04/12 01:04:50;;;;;;;2.88;2.60;;;;;;;7.17;81.19;95472.72;6367068;22;20378;-59
2022/04/12 01:07:17;;;;;;;3.83;2.58;;;;;;;7.26;81.76;95476.38;6366545;22;20077;-59
2022/04/12 01:09:42;;;;;;;2.88;2.63;;;;;;;7.13;82.09;95474.75;6366866;22;20006;-58
2022/04/12 01:12:09;;;;;;;2.80;2.60;;;;;;;7.12;81.97;95472.28;6367113;22;20008;-58
2022/04/12 01:14:36;;;;;;;3.38;2.30;;;;;;;7.12;81.79;95473.09;6338693;22;20024;-58
2022/04/12 01:17:05;;;;;;;2.50;2.25;;;;;;;7.17;81.07;95473.53;6366172;22;20071;-58
2022/04/12 01:19:31;;;;;;;3.25;2.25;;;;;;;7.26;80.18;95469.34;6366578;22;20002;-58
2022/04/12 01:22:05;;;;;;;2.30;2.10;;;;;;;7.21;80.56;95466.25;6366628;22;20077;-58
2022/04/12 01:24:34;;;;;;;2.53;2.10;;;;;;;7.24;80.24;95475.66;6366439;22;20077;-59
2022/04/12 01:27:00;;;;;;;2.08;1.98;;;;;;;7.16;80.94;95473.69;6366257;22;20103;-58
2022/04/12 01:29:32;;;;;;;2.65;2.15;;;;;;;7.05;82.38;95465.84;6366498;22;20006;-58
2022/04/12 01:31:58;;;;;;;2.72;2.30;;;;;;;6.97;82.39;95471.75;6366974;22;20071;-58
2022/04/12 01:34:24;;;;;;;2.25;2.08;;;;;;;7.03;81.72;95461.59;6366465;22;20434;-58
2022/04/12 01:36:49;;;;;;;2.22;2.05;;;;;;;7.09;81.04;95468.09;6366265;22;20082;-58
2022/04/12 01:39:14;;;;;;;2.05;1.85;;;;;;;7.16;80.77;95461.41;6367007;22;19999;-60
2022/04/12 01:41:40;;;;;;;2.13;2.03;;;;;;;7.14;81.05;95457.28;6366408;22;20055;-58
2022/04/12 01:44:05;;;;;;;2.50;2.00;;;;;;;7.12;81.64;95461.81;6366796;22;20441;-60
2022/04/12 01:46:31;;;;;;;1.73;1.63;;;;;;;7.11;81.06;95455.72;6366432;22;20030;-60
2022/04/12 01:48:56;;;;;;;2.08;1.88;;;;;;;7.10;80.54;95451.44;6367054;22;20342;-60
2022/04/12 01:51:21;;;;;;;2.40;1.70;;;;;;;7.13;80.77;95447.75;6368555;22;20018;-58
2022/04/12 01:53:47;;;;;;;3.35;2.35;;;;;;;7.10;82.11;95443.59;6368806;22;20002;-59
2022/04/12 01:56:12;;;;;;;1.80;1.70;;;;;;;7.06;81.20;95447.41;6368913;22;20323;-59
2022/04/12 01:58:38;;;;;;;2.25;2.00;;;;;;;7.06;80.83;95442.19;6368216;22;20081;-59
2022/04/12 02:01:04;;;;;;;3.35;1.80;;;;;;;7.11;80.73;95445.25;6368952;22;20347;-59
2022/04/12 02:03:29;;;;;;;2.00;1.90;;;;;;;7.19;80.02;95443.81;6368330;22;20445;-59
2022/04/12 02:05:55;;;;;;;1.88;1.77;;;;;;;7.20;80.62;95437.59;6368481;22;20006;-59
2022/04/12 02:08:21;;;;;;;2.25;1.67;;;;;;;7.11;81.02;95444.44;6368324;22;20342;-59
2022/04/12 02:10:47;;;;;;;2.05;1.73;;;;;;;7.12;81.08;95443.47;6368490;22;20551;-60
2022/04/12 02:13:12;;;;;;;2.00;1.90;;;;;;;7.46;78.95;95453.75;6368648;22;20018;-59
2022/04/12 02:15:38;;;;;;;2.50;2.10;;;;;;;7.33;79.56;95453.94;6368456;22;20073;-59
2022/04/12 02:18:03;;;;;;;3.45;3.15;;;;;;;7.41;78.93;95448.06;6368121;22;20091;-59
2022/04/12 02:20:29;;;;;;;2.05;1.95;;;;;;;7.52;78.90;95448.03;6367444;22;20013;-59
2022/04/12 02:22:54;;;;;;;1.77;1.65;;;;;;;7.46;79.58;95445.88;6367204;22;20013;-60
2022/04/12 02:25:19;;;;;;;2.25;2.10;;;;;;;7.43;78.97;95448.78;6367280;22;20350;-59
2022/04/12 02:27:45;;;;;;;3.17;2.05;;;;;;;7.41;79.29;95450.69;6367086;22;20013;-59
2022/04/12 02:30:15;;;;;;;2.35;2.10;;;;;;;7.52;78.52;95442.78;6367978;22;20374;-59
2022/04/12 02:32:41;;;;;;;1.92;1.83;;;;;;;7.58;78.42;95441.41;6368157;22;20010;-59
2022/04/12 02:35:07;;;;;;;2.30;2.20;;;;;;;7.55;78.45;95433.81;6368851;22;20030;-59
2022/04/12 02:37:33;;;;;;;2.63;2.42;;;;;;;7.72;77.70;95433.22;6367918;22;20055;-59
2022/04/12 02:39:58;;;;;;;3.13;2.55;;;;;;;7.63;78.01;95422.69;6367906;22;20002;-59
2022/04/12 02:42:23;;;;;;;2.05;1.92;;;;;;;7.68;78.11;95431.81;6368285;22;20010;-59
2022/04/12 02:44:49;;;;;;;2.88;2.00;;;;;;;7.62;78.51;95427.09;6368327;22;20002;-59
2022/04/12 02:47:14;;;;;;;1.98;1.70;;;;;;;7.61;78.37;95425.44;6368208;22;20007;-60
2022/04/12 02:49:40;;;;;;;5.93;2.40;;;;;;;7.58;79.14;95430.94;6367989;22;20022;-59
2022/04/12 02:52:05;;;;;;;4.40;3.75;;;;;;;7.57;78.92;95424.88;6367987;22;20007;-59
2022/04/12 02:54:31;;;;;;;2.67;2.47;;;;;;;7.56;78.51;95420.59;6367863;22;20002;-59
2022/04/12 02:56:57;;;;;;;2.33;2.00;;;;;;;7.54;78.64;95419.06;6368522;22;20003;-59
2022/04/12 02:59:22;;;;;;;4.05;2.10;;;;;;;7.56;78.89;95422.38;6339963;22;20021;-60
2022/04/12 03:01:48;;;;;;;2.40;1.83;;;;;;;7.54;80.14;95414.66;6368020;22;20038;-59
2022/04/12 03:04:13;;;;;;;2.97;2.75;;;;;;;7.50;79.82;95417.66;6368600;22;20383;-60
2022/04/12 03:06:38;;;;;;;2.28;2.13;;;;;;;7.76;77.95;95415.44;6368111;22;19998;-59
2022/04/12 03:09:04;;;;;;;2.70;2.50;;;;;;;7.62;79.11;95415.78;6368352;22;20013;-59
2022/04/12 03:11:29;;;;;;;4.35;2.35;;;;;;;7.55;80.07;95410.22;6368582;22;20342;-59
2022/04/12 03:13:54;;;;;;;3.92;1.90;;;;;;;7.57;79.75;95409.16;6368151;22;19999;-59
2022/04/12 03:16:20;;;;;;;2.95;2.65;;;;;;;7.72;78.84;95412.25;6368154;22;20013;-59
2022/04/12 03:18:45;;;;;;;3.33;2.95;;;;;;;7.59;79.15;95402.00;6368415;22;20478;-59
2022/04/12 03:21:11;;;;;;;6.22;2.63;;;;;;;7.49;80.46;95398.47;6368355;22;20033;-60
2022/04/12 03:23:37;;;;;;;3.25;2.90;;;;;;;7.38;81.20;95394.16;6368124;22;20006;-59
2022/04/12 03:26:03;;;;;;;4.40;2.90;;;;;;;7.53;80.84;95406.91;6368024;22;20033;-59
2022/04/12 03:28:29;;;;;;;2.05;1.88;;;;;;;7.74;79.17;95393.78;6367694;22;20019;-60
2022/04/12 03:30:54;;;;;;;1.90;1.80;;;;;;;7.58;79.62;95395.09;6367957;22;20077;-59
2022/04/12 03:33:19;;;;;;;3.22;2.63;;;;;;;7.58;79.31;95396.88;6367828;22;20082;-59
2022/04/12 03:35:45;;;;;;;3.22;2.92;;;;;;;7.41;80.19;95388.69;6368223;22;20034;-59
2022/04/12 03:38:11;;;;;;;7.15;2.60;;;;;;;7.37;80.90;95394.28;6368080;22;20001;-59
2022/04/12 03:40:36;;;;;;;7.25;3.45;;;;;;;7.34;80.73;95394.56;6367855;22;20013;-59
2022/04/12 03:43:06;;;;;;;3.90;3.40;;;;;;;7.23;82.13;95392.84;6367926;22;20010;-59
2022/04/12 03:45:32;;;;;;;2.92;2.70;;;;;;;7.32;80.67;95397.28;6367773;22;20013;-58
2022/04/12 03:47:57;;;;;;;2.50;2.30;;;;;;;7.19;81.50;95394.06;6368158;22;20008;-60
2022/04/12 03:50:23;;;;;;;3.25;2.90;;;;;;;7.11;82.67;95389.47;6367690;22;20030;-59
2022/04/12 03:52:50;;;;;;;3.35;2.65;;;;;;;7.11;81.83;95397.31;6367894;22;20009;-60
2022/04/12 03:55:30;;;;;;;5.28;2.50;;;;;;;7.16;81.70;95393.31;6367588;22;20003;-59
2022/04/12 03:57:55;;;;;;;2.58;2.25;;;;;;;7.19;81.24;95386.22;6368119;22;20003;-59
2022/04/12 04:00:20;;;;;;;2.10;2.00;;;;;;;7.19;81.49;95388.81;6367452;22;20005;-59
2022/04/12 04:02:46;;;;;;;3.72;2.17;;;;;;;7.15;81.49;95394.28;6367759;22;20037;-60
2022/04/12 04:05:11;;;;;;;2.30;2.10;;;;;;;7.10;82.07;95391.22;6367481;22;19998;-59
2022/04/12 04:07:36;;;;;;;4.05;2.40;;;;;;;7.13;81.94;95375.25;6367481;22;20016;-60
2022/04/12 04:10:02;;;;;;;3.33;2.58;;;;;;;7.41;80.87;95393.06;6367541;22;20319;-59
2022/04/12 04:12:28;;;;;;;5.50;2.60;;;;;;;7.24;81.30;95391.88;6367691;22;19999;-59
2022/04/12 04:14:53;;;;;;;2.42;2.33;;;;;;;7.17;81.22;95381.91;6366696;22;20106;-59
2022/04/12 04:17:18;;;;;;;10.57;2.33;;;;;;;7.10;82.17;95395.66;6367297;22;19998;-59
2022/04/12 04:19:44;;;;;;;4.03;2.40;;;;;;;7.05;82.50;95392.56;6366708;22;20033;-59
2022/04/12 04:22:09;;;;;;;3.25;2.90;;;;;;;7.35;81.09;95399.66;6366998;22;20010;-59
2022/04/12 04:24:35;;;;;;;2.00;1.90;;;;;;;7.19;81.05;95394.06;6367496;22;20021;-59
2022/04/12 04:27:00;;;;;;;2.33;2.13;;;;;;;7.07;83.03;95396.72;6367530;22;20043;-59
2022/04/12 04:29:32;;;;;;;4.72;2.30;;;;;;;6.95;82.91;95398.56;6367171;22;20006;-59
2022/04/12 04:31:57;;;;;;;3.15;2.60;;;;;;;6.93;83.26;95394.41;6367749;22;20006;-59
2022/04/12 04:34:23;;;;;;;2.42;2.22;;;;;;;6.83;83.84;95392.56;6367318;22;20320;-59
2022/04/12 04:36:48;;;;;;;2.65;2.45;;;;;;;6.94;82.74;95406.53;6367059;22;20380;-59
2022/04/12 04:39:13;;;;;;;4.03;2.70;;;;;;;6.84;82.77;95396.84;6367171;22;20013;-58
2022/04/12 04:41:39;;;;;;;2.80;2.60;;;;;;;6.84;83.28;95404.69;6367362;22;20002;-59
2022/04/12 04:44:05;;;;;;;3.70;2.75;;;;;;;6.76;84.22;95401.88;6367715;22;20398;-59
2022/04/12 04:46:30;;;;;;;5.10;3.03;;;;;;;6.71;84.04;95397.03;6367118;22;20002;-58
2022/04/12 04:48:55;;;;;;;3.53;2.85;;;;;;;6.70;83.90;95394.50;6367184;22;20003;-60
2022/04/12 04:51:21;;;;;;;2.85;2.65;;;;;;;6.70;83.60;95395.38;6367261;22;20034;-59
2022/04/12 04:53:55;;;;;;;7.72;3.10;;;;;;;6.70;83.76;95397.97;6367354;22;20438;-59
2022/04/12 04:56:21;;;;;;;4.70;2.77;;;;;;;6.71;83.72;95396.19;6367328;22;20373;-59
2022/04/12 04:58:46;;;;;;;3.75;3.40;;;;;;;6.64;84.38;95387.19;6367674;22;20051;-59
2022/04/12 05:01:11;;;;;;;3.08;2.85;;;;;;;6.66;84.14;95387.88;6367067;22;20453;-60
2022/04/12 05:03:37;;;;;;;5.78;3.35;;;;;;;6.78;83.28;95394.75;6366958;22;20010;-59
2022/04/12 05:06:02;;;;;;;3.13;2.70;;;;;;;6.76;83.37;95383.56;6367145;22;20141;-59
2022/04/12 05:08:28;;;;;;;3.13;2.85;;;;;;;6.84;83.12;95388.16;6367204;22;20002;-59
2022/04/12 05:10:53;;;;;;;6.10;3.00;;;;;;;7.07;82.13;95395.88;6367097;22;20113;-59
2022/04/12 05:13:18;;;;;;;3.85;3.28;;;;;;;7.03;82.65;95388.28;6367207;22;20001;-59
2022/04/12 05:15:44;;;;;;;3.20;2.67;;;;;;;6.97;82.92;95388.81;6366941;22;20448;-59
2022/04/12 05:18:09;;;;;;;3.00;2.80;;;;;;;6.90;83.87;95384.19;6367146;22;20003;-59
2022/04/12 05:20:35;;;;;;;4.75;2.85;;;;;;;6.85;84.67;95392.41;6366195;22;20020;-60
2022/04/12 05:23:00;;;;;;;2.90;2.70;;;;;;;6.92;83.66;95393.59;6365937;22;20431;-59
2022/04/12 05:25:26;;;;;;;3.28;2.90;;;;;;;6.86;84.25;95394.13;6366692;22;20005;-60
2022/04/12 05:27:51;;;;;;;7.43;2.90;;;;;;;6.91;84.62;95404.19;6366980;22;20002;-59
2022/04/12 05:30:17;;;;;;;5.40;2.58;;;;;;;6.86;84.98;95394.94;6366525;22;20006;-59
2022/04/12 05:32:44;;;;;;;6.15;2.78;;;;;;;7.00;84.33;95395.59;6366612;22;20041;-59
2022/04/12 05:35:10;;;;;;;3.08;2.80;;;;;;;6.97;84.32;95401.06;6338366;22;20111;-57
2022/04/12 05:37:47;;;;;;;6.18;3.30;;;;;;;7.00;84.22;95393.78;6365686;22;20073;-59
2022/04/12 05:40:14;;;;;;;4.57;2.85;;;;;;;6.99;84.40;95391.31;6365481;22;20006;-59
2022/04/12 05:42:40;;;;;;;9.80;2.92;;;;;;;7.05;83.90;95396.03;6365546;22;20006;-59
2022/04/12 05:45:10;;;;;;;3.30;2.70;;;;;;;7.03;84.57;95393.53;6365940;22;20025;-59
2022/04/12 05:47:54;;;;;;;9.02;3.00;;;;;;;7.07;84.83;95396.72;6365507;22;20069;-57
2022/04/12 05:50:26;;;;;;;3.20;2.95;;;;;;;7.20;83.62;95393.09;6366151;22;20093;-60
2022/04/12 05:52:52;;;;;;;10.30;2.90;;;;;;;7.34;83.67;95394.56;6366624;22;20012;-61
2022/04/12 05:55:19;;;;;;;2.92;2.72;;;;;;;7.33;83.78;95395.53;6366772;22;20048;-60
2022/04/12 05:57:52;;;;;;;5.57;3.00;;;;;;;7.43;83.73;95396.38;6367097;22;20013;-59
2022/04/12 06:00:22;;;;;;;3.83;3.15;;;;;;;7.51;83.17;95403.59;6365780;22;20006;-60
2022/04/12 06:02:50;;;;;;;8.10;3.53;;;;;;;7.57;83.16;95403.91;6366116;22;20014;-60
2022/04/12 06:05:16;;;;;;;3.25;2.85;;;;;;;7.76;82.48;95398.88;6366896;22;19999;-61
2022/04/12 06:07:42;;;;;;;5.28;3.15;;;;;;;7.92;81.64;95396.59;6366054;22;19999;-60
2022/04/12 06:10:09;;;;;;;15.40;9.30;;;;;;;8.08;80.89;95398.72;6364941;22;20043;-60
2022/04/12 06:12:35;;;;;;;17.10;9.52;;;;;;;8.25;80.24;95401.66;6366925;22;20013;-60
2022/04/12 06:15:00;;;;;;;11.77;7.03;;;;;;;8.36;80.98;95405.97;6366712;22;20057;-60
2022/04/12 06:17:30;;;;;;;10.70;6.28;;;;;;;8.44;80.75;95413.97;6366414;22;20646;-60
2022/04/12 06:20:11;;;;;;;7.50;5.03;;;;;;;8.69;79.40;95409.22;6366271;22;20006;-60
2022/04/12 06:22:37;;;;;;;7.80;4.30;;;;;;;8.84;79.62;95413.09;6366577;22;20048;-60
2022/04/12 06:25:04;;;;;;;9.70;4.63;;;;;;;8.96;78.83;95412.97;6366301;22;20002;-60
2022/04/12 06:27:37;;;;;;;5.38;3.95;;;;;;;9.27;77.99;95413.59;6366083;22;20376;-59
2022/04/12 06:30:08;;;;;;;10.18;4.55;;;;;;;9.38;76.71;95412.63;6366923;22;20009;-59
2022/04/12 06:32:34;;;;;;;9.32;5.20;;;;;;;9.42;76.67;95419.28;6366482;22;20051;-60
2022/04/12 06:35:00;;;;;;;11.25;5.45;;;;;;;9.51;76.08;95429.91;6367955;22;20014;-59
2022/04/12 06:37:26;;;;;;;10.50;5.13;;;;;;;9.61;76.44;95430.69;6366729;22;20007;-60
2022/04/12 06:39:52;;;;;;;4.25;3.65;;;;;;;9.63;75.64;95428.78;6368591;22;20030;-60
2022/04/12 06:42:18;;;;;;;6.03;3.78;;;;;;;9.62;76.42;95431.53;6368712;22;20040;-60
2022/04/12 06:44:43;;;;;;;5.18;2.92;;;;;;;9.68;75.76;95421.28;6368490;22;20007;-59
2022/04/12 06:47:08;;;;;;;7.47;3.20;;;;;;;9.89;75.14;95426.31;6368568;22;20030;-60
2022/04/12 06:49:34;;;;;;;8.65;2.97;;;;;;;9.98;74.31;95422.00;6368114;22;20473;-59
2022/04/12 06:52:03;;;;;;;4.53;3.00;;;;;;;10.16;73.34;95418.59;6368945;22;20006;-60
2022/04/12 06:54:28;;;;;;;4.85;3.30;;;;;;;10.38;73.67;95421.81;6368443;22;19998;-59
2022/04/12 06:56:54;;;;;;;3.47;3.17;;;;;;;10.59;73.71;95417.13;6368271;22;20009;-59
2022/04/12 06:59:20;;;;;;;4.43;2.97;;;;;;;10.78;72.94;95420.63;6368363;22;20029;-60
2022/04/12 07:01:46;;;;;;;5.88;3.17;;;;;;;11.06;70.75;95417.09;6368298;22;20002;-59
2022/04/12 07:04:11;;;;;;;2.97;2.78;;;;;;;11.70;69.44;95424.78;6368340;22;20005;-59
2022/04/12 07:06:36;;;;;;;3.15;2.88;;;;;;;12.18;67.27;95430.50;6368672;22;20006;-60
2022/04/12 07:09:02;;;;;;;5.63;2.70;;;;;;;12.14;67.15;95437.09;6368424;22;20013;-60
2022/04/12 07:11:27;;;;;;;6.97;2.88;;;;;;;12.12;65.04;95433.78;6367877;22;20438;-60
2022/04/12 07:13:53;;;;;;;2.97;2.60;;;;;;;12.04;66.40;95438.00;6368537;22;20069;-60
2022/04/12 07:16:18;;;;;;;3.55;2.40;;;;;;;12.02;66.67;95426.78;6368244;22;20002;-60
2022/04/12 07:18:43;;;;;;;4.00;1.90;;;;;;;11.92;64.92;95441.06;6368397;22;20010;-60
2022/04/12 07:21:09;;;;;;;2.92;2.30;;;;;;;11.81;64.93;95434.22;6368071;22;20015;-60
2022/04/12 07:23:37;;;;;;;3.22;2.92;;;;;;;11.84;64.52;95439.22;6368223;22;20033;-59
2022/04/12 07:26:05;;;;;;;4.05;2.50;;;;;;;11.79;65.64;95436.19;6368111;22;20021;-60
2022/04/12 07:28:31;;;;;;;5.32;3.10;;;;;;;11.78;66.61;95443.31;6367797;22;19995;-59
2022/04/12 07:30:56;;;;;;;3.22;2.42;;;;;;;11.83;66.23;95446.28;6368489;22;20041;-60
2022/04/12 07:33:22;;;;;;;3.60;2.22;;;;;;;11.88;65.21;95441.38;6368189;22;20075;-60
2022/04/12 07:35:47;;;;;;;2.55;2.20;;;;;;;12.14;64.74;95445.00;6367654;22;20002;-60
2022/04/12 07:38:12;;;;;;;4.63;2.78;;;;;;;12.23;64.97;95448.50;6368303;22;20287;-59
2022/04/12 07:40:38;;;;;;;4.03;2.88;;;;;;;12.16;64.84;95445.66;6367826;22;20399;-59
2022/04/12 07:43:03;;;;;;;3.30;2.50;;;;;;;12.32;62.92;95455.47;6368114;22;20002;-59
2022/04/12 07:45:29;;;;;;;3.13;1.95;;;;;;;12.51;64.17;95454.41;6367904;22;20022;-60
2022/04/12 07:47:54;;;;;;;3.85;2.42;;;;;;;12.72;62.99;95451.31;6367703;22;20010;-60
2022/04/12 07:50:20;;;;;;;2.85;2.35;;;;;;;13.01;61.70;95454.53;6367921;22;20018;-60
2022/04/12 07:52:45;;;;;;;2.55;2.10;;;;;;;13.11;61.74;95449.09;6367581;22;20002;-59
2022/04/12 07:55:10;;;;;;;4.65;1.88;;;;;;;13.15;61.74;95445.97;6367872;22;20262;-60
2022/04/12 07:57:36;;;;;;;4.18;1.70;;;;;;;13.20;62.20;95450.72;6367856;22;20030;-61
2022/04/12 08:00:01;;;;;;;2.42;1.77;;;;;;;13.24;61.95;95449.41;6367929;22;20342;-60
2022/04/12 08:02:27;;;;;;;2.22;1.98;;;;;;;13.37;60.01;95456.84;6367767;22;19998;-59
2022/04/12 08:04:54;;;;;;;4.93;2.00;;;;;;;13.55;58.74;95459.38;6367719;22;20006;-60
2022/04/12 08:07:20;;;;;;;2.80;1.80;;;;;;;13.93;58.61;95455.38;6367748;22;20342;-59
2022/04/12 08:09:45;;;;;;;1.90;1.80;;;;;;;14.41;57.69;95458.84;6367389;22;20077;-60
2022/04/12 08:12:10;;;;;;;3.13;1.90;;;;;;;14.43;56.16;95456.00;6367716;22;20427;-59
2022/04/12 08:14:36;;;;;;;2.78;1.83;;;;;;;14.88;55.12;95451.84;6367515;22;20025;-59
2022/04/12 08:17:01;;;;;;;9.38;2.00;;;;;;;15.42;52.27;95455.47;6367942;22;20016;-60
2022/04/12 08:19:27;;;;;;;5.72;1.63;;;;;;;16.09;50.05;95452.25;6367357;22;20040;-59
2022/04/12 08:21:52;;;;;;;4.20;1.92;;;;;;;16.52;49.12;95454.25;6367237;22;20018;-57
2022/04/12 08:24:17;;;;;;;4.90;1.77;;;;;;;16.22;48.97;95454.25;6367057;22;20418;-60
2022/04/12 08:26:43;;;;;;;3.55;1.73;;;;;;;16.21;48.44;95456.06;6366165;22;20002;-60
2022/04/12 08:29:08;;;;;;;10.85;5.80;;;;;;;16.36;48.26;95445.47;6366434;22;20343;-57
2022/04/12 08:31:33;;;;;;;14.38;6.72;;;;;;;16.32;49.05;95447.66;6366260;22;19998;-57
2022/04/12 08:33:59;;;;;;;6.72;2.88;;;;;;;16.03;48.90;95445.81;6366803;22;20006;-57
2022/04/12 08:36:25;;;;;;;5.57;2.33;;;;;;;16.16;48.75;95438.06;6367610;22;20077;-57
2022/04/12 08:38:51;;;;;;;3.00;2.40;;;;;;;15.74;51.61;95442.91;6367336;22;20426;-59
2022/04/12 08:41:19;;;;;;;2.60;1.83;;;;;;;15.56;51.85;95440.59;6367064;22;20006;-57
2022/04/12 08:43:45;;;;;;;4.00;2.15;;;;;;;15.70;50.94;95446.94;6367420;22;20037;-57
2022/04/12 08:46:11;;;;;;;1.85;1.70;;;;;;;15.59;50.69;95450.84;6367413;22;20283;-59
2022/04/12 08:48:37;;;;;;;4.25;1.95;;;;;;;15.49;51.90;95454.75;6367004;22;20312;-57
2022/04/12 08:51:03;;;;;;;3.08;2.00;;;;;;;15.28;52.63;95450.94;6367303;22;20081;-57
2022/04/12 08:53:29;;;;;;;5.88;1.75;;;;;;;15.37;52.12;95446.41;6367014;22;20511;-60
2022/04/12 08:55:55;;;;;;;4.63;2.10;;;;;;;15.17;51.57;95441.56;6367192;22;20093;-57
2022/04/12 08:58:21;;;;;;;1.80;1.70;;;;;;;15.15;51.58;95444.41;6366435;22;19998;-57
2022/04/12 09:00:47;;;;;;;4.32;1.98;;;;;;;15.17;52.19;95437.09;6367069;22;20010;-57
2022/04/12 09:03:14;;;;;;;4.85;2.60;;;;;;;15.12;52.82;95439.44;6367470;22;20468;-57
2022/04/12 09:05:40;;;;;;;2.63;1.95;;;;;;;15.17;53.06;95441.56;6367014;22;20006;-57
2022/04/12 09:08:23;;;;;;;4.35;2.03;;;;;;;15.29;52.67;95439.31;6367220;22;20016;-57
2022/04/12 09:10:59;;;;;;;6.45;1.60;;;;;;;15.76;51.94;95440.91;6367017;22;20036;-57
2022/04/12 09:13:25;;;;;;;3.10;1.90;;;;;;;16.06;50.74;95444.66;6367269;22;20055;-59
2022/04/12 09:15:51;;;;;;;3.03;1.63;;;;;;;16.25;49.82;95437.97;6366969;22;20372;-57
2022/04/12 09:18:37;;;;;;;2.10;1.90;;;;;;;16.33;49.96;95436.03;6366653;22;20002;-57
2022/04/12 09:21:19;;;;;;;3.55;2.03;;;;;;;16.40;49.13;95429.97;6367021;22;20041;-59
2022/04/12 09:23:50;;;;;;;3.92;1.60;;;;;;;16.25;48.93;95432.66;6366877;22;20028;-57
2022/04/12 09:26:26;;;;;;;1.92;1.70;;;;;;;16.15;49.11;95424.94;6366972;22;20033;-60
2022/04/12 09:28:54;;;;;;;1.90;1.80;;;;;;;16.48;48.29;95421.91;6366993;22;20089;-60
2022/04/12 09:31:20;;;;;;;3.25;1.95;;;;;;;16.59;47.73;95415.31;6366889;22;20131;-57
2022/04/12 09:33:47;;;;;;;3.90;1.95;;;;;;;16.56;47.83;95421.81;6367473;22;20002;-60
2022/04/12 09:36:13;;;;;;;2.30;1.70;;;;;;;16.43;47.85;95411.00;6367061;22;20002;-59
2022/04/12 09:38:42;;;;;;;2.55;1.60;;;;;;;16.38;48.32;95416.88;6367056;22;20025;-60
2022/04/12 09:41:15;;;;;;;2.03;1.90;;;;;;;16.63;46.23;95413.06;6366827;22;20007;-59
2022/04/12 09:44:08;;;;;;;2.42;1.58;;;;;;;16.56;46.02;95397.06;6367125;22;20002;-59
2022/04/12 09:46:37;;;;;;;2.00;1.90;;;;;;;16.58;45.49;95403.03;6366955;22;19998;-59
2022/04/12 09:49:04;;;;;;;4.57;1.90;;;;;;;16.49;46.21;95397.00;6366862;22;20276;-59
2022/04/12 09:51:30;;;;;;;3.78;2.10;;;;;;;16.55;45.64;95400.72;6366836;22;20422;-59
2022/04/12 09:53:56;;;;;;;2.70;2.10;;;;;;;16.74;45.97;95396.66;6367330;22;20082;-59
2022/04/12 09:56:23;;;;;;;2.63;2.10;;;;;;;16.88;45.72;95387.78;6366745;22;20476;-59
2022/04/12 09:59:01;;;;;;;2.25;1.85;;;;;;;16.96;46.43;95394.03;6366709;22;20010;-59
2022/04/12 10:01:27;;;;;;;2.10;1.77;;;;;;;17.07;46.04;95393.53;6366500;22;20014;-59
2022/04/12 10:03:58;;;;;;;2.38;1.85;;;;;;;17.25;45.25;95378.97;6366962;22;19998;-59
2022/04/12 10:06:28;;;;;;;1.90;1.80;;;;;;;17.32;44.17;95383.34;6367042;22;19998;-59
2022/04/12 10:08:58;;;;;;;1.58;1.48;;;;;;;17.28;44.34;95381.25;6367172;22;20023;-59
2022/04/12 10:11:24;;;;;;;5.57;1.90;;;;;;;17.16;45.52;95376.44;6368728;22;20047;-59
2022/04/12 10:13:50;;;;;;;2.83;1.85;;;;;;;17.31;44.63;95373.72;6368856;22;20002;-59
2022/04/12 10:16:17;;;;;;;2.20;1.95;;;;;;;17.53;44.57;95375.50;6368903;22;19998;-59
2022/04/12 10:18:44;;;;;;;4.10;1.70;;;;;;;17.66;43.82;95367.63;6368737;22;20002;-59
2022/04/12 10:21:12;;;;;;;3.25;2.03;;;;;;;17.64;45.30;95366.16;6368905;22;20002;-59
2022/04/12 10:23:40;;;;;;;4.80;2.33;;;;;;;17.47;45.57;95367.28;6368429;22;20012;-59
2022/04/12 10:26:07;;;;;;;1.58;1.48;;;;;;;17.70;45.32;95363.53;6368857;22;20003;-59
2022/04/12 10:28:33;;;;;;;2.00;1.60;;;;;;;17.70;45.08;95360.88;6368582;22;20055;-59
2022/04/12 10:31:24;;;;;;;3.55;1.70;;;;;;;17.92;44.21;95352.00;6368568;22;20010;-59
2022/04/12 10:34:01;;;;;;;2.38;1.75;;;;;;;17.63;46.64;95349.38;6350117;22;20033;-57
2022/04/12 10:36:54;;;;;;;4.40;2.28;;;;;;;17.69;45.27;95353.91;6368317;22;20094;-59
2022/04/12 10:39:30;;;;;;;4.45;2.05;;;;;;;18.25;45.23;95356.72;6368689;22;20073;-58
2022/04/12 10:41:57;;;;;;;2.60;2.08;;;;;;;18.31;43.57;95345.25;6368422;22;20010;-59
2022/04/12 10:44:22;;;;;;;4.72;2.03;;;;;;;18.35;43.09;95346.50;6368216;22;20381;-59
2022/04/12 10:46:53;;;;;;;4.65;1.92;;;;;;;18.64;42.49;95349.88;6368627;22;20085;-59
2022/04/12 10:49:21;;;;;;;2.83;2.00;;;;;;;18.55;43.88;95351.06;6368178;22;20457;-59
2022/04/12 10:51:57;;;;;;;1.88;1.77;;;;;;;19.00;40.70;95338.06;6368367;22;20474;-59
2022/04/12 10:54:29;;;;;;;2.83;1.90;;;;;;;19.24;39.32;95341.19;6367936;22;20048;-59
2022/04/12 10:57:19;;;;;;;5.00;2.22;;;;;;;19.27;38.63;95339.94;6368204;22;20003;-59
2022/04/12 11:00:08;;;;;;;3.15;1.80;;;;;;;18.92;38.28;95332.91;6368162;22;20465;-59
2022/04/12 11:02:43;;;;;;;3.47;1.90;;;;;;;18.52;40.89;95335.47;6368003;22;20002;-59
2022/04/12 11:05:37;;;;;;;4.57;2.25;;;;;;;18.54;38.93;95334.25;6340374;22;20010;-59
2022/04/12 11:08:14;;;;;;;2.33;1.85;;;;;;;18.49;39.12;95333.22;6368486;22;20002;-59
2022/04/12 11:10:59;;;;;;;7.90;2.00;;;;;;;18.33;39.85;95322.72;6368388;22;19999;-59
2022/04/12 11:13:28;;;;;;;;;;;;;;;18.21;41.39;95326.97;6367759;22;20006;-59
2022/04/12 11:16:00;;;;;;;3.35;1.60;;;;;;;18.34;41.16;95315.53;6368304;22;19913;-59
2022/04/12 11:18:45;;;;;;;4.70;1.80;;;;;;;18.80;38.65;95314.00;6368592;22;20073;-59
2022/04/12 11:21:10;;;;;;;3.58;1.63;;;;;;;18.65;40.32;95310.69;6367875;22;20006;-59
2022/04/12 11:24:01;;;;;;;3.25;2.00;;;;;;;18.82;39.47;95309.28;6368660;22;20009;-59
2022/04/12 11:26:34;;;;;;;3.38;1.92;;;;;;;18.97;40.60;95310.97;6367812;22;20003;-59
2022/04/12 11:29:00;;;;;;;2.25;2.10;;;;;;;19.02;40.36;95304.03;6368237;22;20013;-59
2022/04/12 11:31:25;;;;;;;3.60;2.03;;;;;;;19.21;41.51;95309.53;6368008;22;20077;-59
2022/04/12 11:33:50;;;;;;;2.30;2.15;;;;;;;19.35;42.24;95305.06;6368199;22;20033;-57
2022/04/12 11:36:19;;;;;;;1.90;1.48;;;;;;;19.73;37.93;95311.56;6368122;22;20005;-57
2022/04/12 11:38:46;;;;;;;2.15;1.77;;;;;;;19.67;38.64;95305.19;6367844;22;20017;-57
2022/04/12 11:41:11;;;;;;;3.80;1.90;;;;;;;19.75;38.58;95302.28;6367549;22;20013;-57
2022/04/12 11:43:37;;;;;;;3.38;2.30;;;;;;;19.89;37.25;95296.94;6368382;22;20430;-57